Time;durP1;ratioP1;P1;durP2;ratioP2;P2;SDS_P1;SDS_P2;PMS_P1;PMS_P2;Temp;Humidity;BMP_temperature;BMP_pressure;BME280_temperature;BME280_humidity;BME280_pressure;Samples;Min_cycle;Max_cycle;Signal;HPM_P1;HPM_P2
2021/12/31 00:00:25;;;;;;;28.83;11.23;;;;;;;;;;5061867;28;20460;-80
2021/12/31 00:02:52;;;;;;;14.60;10.50;;;;;;;;;;5063970;28;20516;-80
2021/12/31 00:05:18;;;;;;;16.90;10.27;;;;;;;;;;5062959;28;20539;-80
2021/12/31 00:07:46;;;;;;;17.93;9.80;;;;;;;;;;5061872;28;20459;-79
2021/12/31 00:10:13;;;;;;;12.40;8.40;;;;;;;;;;5062810;28;20467;-80
2021/12/31 00:12:42;;;;;;;14.07;8.90;;;;;;;;;;5062460;28;20476;-80
2021/12/31 00:15:09;;;;;;;13.07;7.50;;;;;;;;;;5063905;28;20480;-80
2021/12/31 00:17:35;;;;;;;20.13;8.47;;;;;;;;;;5063498;28;20459;-79
2021/12/31 00:20:05;;;;;;;14.00;7.87;;;;;;;;;;5064354;28;21687;-80
2021/12/31 00:22:57;;;;;;;11.00;6.30;;;;;;;;;;5062859;28;21115;-80
2021/12/31 00:25:25;;;;;;;12.33;7.10;;;;;;;;;;5064683;28;20422;-79
2021/12/31 00:27:51;;;;;;;17.60;6.97;;;;;;;;;;5062741;28;20480;-80
2021/12/31 00:30:18;;;;;;;10.23;6.13;;;;;;;;;;5063301;28;20524;-80
2021/12/31 00:32:45;;;;;;;20.27;8.00;;;;;;;;;;5061600;28;20474;-80
2021/12/31 00:35:12;;;;;;;14.20;5.43;;;;;;;;;;5062859;28;21070;-80
2021/12/31 00:37:39;;;;;;;18.43;7.50;;;;;;;;;;5062084;28;20896;-79
2021/12/31 00:40:06;;;;;;;15.30;6.33;;;;;;;;;;5062375;28;20463;-80
2021/12/31 00:42:34;;;;;;;18.73;6.50;;;;;;;;;;5062150;28;21012;-80
2021/12/31 00:45:00;;;;;;;14.77;5.70;;;;;;;;;;5062818;28;20509;-80
2021/12/31 00:47:26;;;;;;;9.20;5.20;;;;;;;;;;5060889;28;21047;-79
2021/12/31 00:49:52;;;;;;;12.73;5.37;;;;;;;;;;5061305;28;20425;-79
2021/12/31 00:52:19;;;;;;;15.60;7.30;;;;;;;;;;5061990;28;20525;-80
2021/12/31 00:54:45;;;;;;;19.23;12.17;;;;;;;;;;5062868;28;20446;-79
2021/12/31 00:57:11;;;;;;;13.10;8.93;;;;;;;;;;5061350;28;20479;-79
2021/12/31 00:59:40;;;;;;;17.60;8.90;;;;;;;;;;5061930;28;20452;-79
2021/12/31 01:02:07;;;;;;;27.17;22.00;;;;;;;;;;5063187;28;20475;-79
2021/12/31 01:04:33;;;;;;;23.27;16.80;;;;;;;;;;5062026;28;20514;-80
2021/12/31 01:07:01;;;;;;;20.30;15.07;;;;;;;;;;5061797;28;20464;-80
2021/12/31 01:09:28;;;;;;;21.00;14.10;;;;;;;;;;5063246;28;20456;-79
2021/12/31 01:11:56;;;;;;;18.27;9.90;;;;;;;;;;5062764;28;20486;-80
2021/12/31 01:14:28;;;;;;;14.60;8.60;;;;;;;;;;5062487;28;20517;-80
2021/12/31 01:16:59;;;;;;;13.80;9.87;;;;;;;;;;5061047;28;20478;-79
2021/12/31 01:22:09;;;;;;;14.97;8.30;;;;;;;;;;5062745;28;20471;-80
2021/12/31 01:24:36;;;;;;;12.30;7.30;;;;;;;;;;5061899;28;20447;-79
2021/12/31 01:27:02;;;;;;;11.27;8.30;;;;;;;;;;5062888;28;20479;-79
2021/12/31 01:29:28;;;;;;;17.07;9.03;;;;;;;;;;5061182;28;20478;-80
2021/12/31 01:31:56;;;;;;;14.00;7.40;;;;;;;;;;5061697;28;20480;-79
2021/12/31 01:34:24;;;;;;;12.40;7.63;;;;;;;;;;5060581;28;20421;-79
2021/12/31 01:36:50;;;;;;;10.33;8.00;;;;;;;;;;5060550;28;20480;-79
2021/12/31 01:39:16;;;;;;;10.73;7.20;;;;;;;;;;5061010;28;20442;-79
2021/12/31 01:41:42;;;;;;;8.47;6.70;;;;;;;;;;5060662;28;20475;-78
2021/12/31 01:44:09;;;;;;;11.40;7.50;;;;;;;;;;5061753;28;20473;-80
2021/12/31 01:46:39;;;;;;;19.40;8.70;;;;;;;;;;5059345;28;20497;-80
2021/12/31 01:49:18;;;;;;;10.00;7.27;;;;;;;;;;5064088;28;20433;-80
2021/12/31 01:51:46;;;;;;;10.40;6.57;;;;;;;;;;5065496;28;20482;-79
2021/12/31 01:54:12;;;;;;;14.10;6.60;;;;;;;;;;5066826;28;20439;-80
2021/12/31 01:56:38;;;;;;;17.17;7.10;;;;;;;;;;5063570;28;20476;-80
2021/12/31 01:59:05;;;;;;;14.63;6.77;;;;;;;;;;5066168;28;20457;-78
2021/12/31 02:01:31;;;;;;;10.10;6.10;;;;;;;;;;5065320;28;20467;-79
2021/12/31 02:03:59;;;;;;;10.00;5.50;;;;;;;;;;5065904;28;20458;-80
2021/12/31 02:06:26;;;;;;;7.93;5.80;;;;;;;;;;5063108;28;20486;-80
2021/12/31 02:08:53;;;;;;;10.50;5.87;;;;;;;;;;5065833;28;20504;-80
2021/12/31 02:11:20;;;;;;;8.63;5.30;;;;;;;;;;5065570;28;20483;-79
2021/12/31 02:13:47;;;;;;;16.10;6.27;;;;;;;;;;5066119;28;20451;-79
2021/12/31 02:16:13;;;;;;;14.10;5.80;;;;;;;;;;5065723;28;20510;-80
2021/12/31 02:18:43;;;;;;;9.23;5.30;;;;;;;;;;5064717;28;20451;-80
2021/12/31 02:21:11;;;;;;;9.97;5.13;;;;;;;;;;5065830;28;20483;-80
2021/12/31 02:23:43;;;;;;;9.40;5.07;;;;;;;;;;5064670;28;20451;-80
2021/12/31 02:26:10;;;;;;;6.73;5.40;;;;;;;;;;5066254;28;20466;-80
2021/12/31 02:28:36;;;;;;;8.60;5.40;;;;;;;;;;5067313;28;20545;-80
2021/12/31 02:31:03;;;;;;;10.33;4.83;;;;;;;;;;5064832;28;20445;-79
2021/12/31 02:33:29;;;;;;;8.73;5.57;;;;;;;;;;5067555;28;20497;-80
2021/12/31 02:35:56;;;;;;;17.60;5.83;;;;;;;;;;5065413;28;20478;-80
2021/12/31 02:38:23;;;;;;;15.47;4.70;;;;;;;;;;5065401;28;20434;-80
2021/12/31 02:40:50;;;;;;;10.33;4.77;;;;;;;;;;5064525;28;20502;-80
2021/12/31 02:43:16;;;;;;;13.80;4.87;;;;;;;;;;5066130;28;20528;-80
2021/12/31 02:45:42;;;;;;;9.90;4.47;;;;;;;;;;5065485;28;20440;-79
2021/12/31 02:48:10;;;;;;;8.00;4.60;;;;;;;;;;5065239;28;20475;-80
2021/12/31 02:50:39;;;;;;;12.40;5.20;;;;;;;;;;5066654;28;20518;-80
2021/12/31 02:53:07;;;;;;;7.40;4.73;;;;;;;;;;5066003;28;20467;-80
2021/12/31 02:55:35;;;;;;;8.30;4.90;;;;;;;;;;5066306;28;20506;-80
2021/12/31 02:58:03;;;;;;;14.70;4.77;;;;;;;;;;5064719;28;20478;-80
2021/12/31 03:00:30;;;;;;;9.80;4.53;;;;;;;;;;5065460;28;20503;-80
2021/12/31 03:02:56;;;;;;;11.00;4.20;;;;;;;;;;5064445;28;20464;-79
2021/12/31 03:05:23;;;;;;;7.10;4.70;;;;;;;;;;5065449;28;20451;-80
2021/12/31 03:07:50;;;;;;;9.47;4.20;;;;;;;;;;5064167;28;20464;-80
2021/12/31 03:10:16;;;;;;;14.77;4.80;;;;;;;;;;5064329;28;20463;-80
2021/12/31 03:12:44;;;;;;;13.80;5.07;;;;;;;;;;5065381;28;20472;-80
2021/12/31 03:15:11;;;;;;;11.77;4.97;;;;;;;;;;5064090;28;20431;-80
2021/12/31 03:17:40;;;;;;;9.50;4.40;;;;;;;;;;5065651;28;20479;-80
2021/12/31 03:20:11;;;;;;;9.33;4.70;;;;;;;;;;5065522;28;20893;-80
2021/12/31 03:22:37;;;;;;;8.50;4.20;;;;;;;;;;5064458;28;20514;-79
2021/12/31 03:25:04;;;;;;;12.37;4.33;;;;;;;;;;5065613;28;20591;-80
2021/12/31 03:27:30;;;;;;;8.80;3.77;;;;;;;;;;5062998;28;20470;-80
2021/12/31 03:29:58;;;;;;;9.13;4.47;;;;;;;;;;5066027;28;20466;-79
2021/12/31 03:32:24;;;;;;;17.53;6.90;;;;;;;;;;5062803;28;21011;-80
2021/12/31 03:34:50;;;;;;;8.40;4.30;;;;;;;;;;5065737;28;20492;-80
2021/12/31 03:37:16;;;;;;;13.43;4.30;;;;;;;;;;5064570;28;20528;-79
2021/12/31 03:39:43;;;;;;;11.57;3.97;;;;;;;;;;5066106;28;20462;-79
2021/12/31 03:42:09;;;;;;;10.70;4.27;;;;;;;;;;5063699;28;20475;-79
2021/12/31 03:44:36;;;;;;;9.63;4.60;;;;;;;;;;5066833;28;20442;-80
2021/12/31 03:47:03;;;;;;;10.67;4.10;;;;;;;;;;5065661;28;20474;-80
2021/12/31 03:49:30;;;;;;;8.47;5.00;;;;;;;;;;5064503;28;20859;-80
2021/12/31 03:51:56;;;;;;;10.63;5.30;;;;;;;;;;5063316;28;20462;-80
2021/12/31 03:54:22;;;;;;;14.97;5.83;;;;;;;;;;5063405;28;20491;-80
2021/12/31 03:56:48;;;;;;;11.17;5.07;;;;;;;;;;5064491;28;20901;-80
2021/12/31 03:59:15;;;;;;;6.70;4.70;;;;;;;;;;5065477;28;20816;-80
2021/12/31 04:01:41;;;;;;;12.20;5.10;;;;;;;;;;5063143;28;20897;-80
2021/12/31 04:04:09;;;;;;;9.77;5.50;;;;;;;;;;5065754;28;20502;-80
2021/12/31 04:06:36;;;;;;;12.53;4.90;;;;;;;;;;5064510;28;20510;-80
2021/12/31 04:09:02;;;;;;;9.50;6.20;;;;;;;;;;5065165;28;20443;-80
2021/12/31 04:11:28;;;;;;;9.73;5.37;;;;;;;;;;5064357;28;20479;-80
2021/12/31 04:13:54;;;;;;;8.87;5.27;;;;;;;;;;5066230;28;20436;-80
2021/12/31 04:16:21;;;;;;;15.37;7.10;;;;;;;;;;5062475;28;20549;-80
2021/12/31 04:18:47;;;;;;;13.60;5.60;;;;;;;;;;5063905;28;20450;-80
2021/12/31 04:21:19;;;;;;;8.13;5.70;;;;;;;;;;5065075;28;20471;-80
2021/12/31 04:23:51;;;;;;;10.93;7.20;;;;;;;;;;5066484;28;20478;-80
2021/12/31 04:26:17;;;;;;;9.10;7.57;;;;;;;;;;5064064;28;20491;-80
2021/12/31 04:28:44;;;;;;;9.87;8.00;;;;;;;;;;5066240;28;20443;-79
2021/12/31 04:31:10;;;;;;;11.53;7.57;;;;;;;;;;5064674;28;20474;-80
2021/12/31 04:33:36;;;;;;;17.33;7.20;;;;;;;;;;5064674;28;20534;-80
2021/12/31 04:36:03;;;;;;;19.50;9.00;;;;;;;;;;5062747;28;20414;-80
2021/12/31 04:38:30;;;;;;;8.37;7.57;;;;;;;;;;5064524;28;20448;-80
2021/12/31 04:40:57;;;;;;;8.73;7.87;;;;;;;;;;5063745;28;20459;-80
2021/12/31 04:43:23;;;;;;;12.70;8.37;;;;;;;;;;5066078;28;20512;-80
2021/12/31 04:45:49;;;;;;;10.80;8.00;;;;;;;;;;5063739;28;20457;-80
2021/12/31 04:48:15;;;;;;;10.63;8.67;;;;;;;;;;5062624;28;20510;-80
2021/12/31 04:50:42;;;;;;;14.50;11.53;;;;;;;;;;5064131;28;20463;-79
2021/12/31 04:53:08;;;;;;;20.50;13.57;;;;;;;;;;5065493;28;20464;-80
2021/12/31 04:55:36;;;;;;;15.83;11.60;;;;;;;;;;5064072;28;20444;-80
2021/12/31 04:58:02;;;;;;;16.57;10.30;;;;;;;;;;5064744;28;20480;-80
2021/12/31 05:00:28;;;;;;;12.93;11.57;;;;;;;;;;5063124;28;20458;-80
2021/12/31 05:02:54;;;;;;;21.50;13.23;;;;;;;;;;5064798;28;20467;-80
2021/12/31 05:05:21;;;;;;;15.77;11.10;;;;;;;;;;5064160;28;20491;-80
2021/12/31 05:07:47;;;;;;;12.77;10.90;;;;;;;;;;5062753;28;20438;-80
2021/12/31 05:10:14;;;;;;;14.67;10.80;;;;;;;;;;5063943;28;20526;-80
2021/12/31 05:12:42;;;;;;;14.20;11.13;;;;;;;;;;5061099;28;20470;-80
2021/12/31 05:15:10;;;;;;;14.20;10.80;;;;;;;;;;5060059;28;20436;-79
2021/12/31 05:17:36;;;;;;;17.10;12.47;;;;;;;;;;5060650;28;20471;-79
2021/12/31 05:20:03;;;;;;;13.77;11.10;;;;;;;;;;5060042;28;20453;-80
2021/12/31 05:22:29;;;;;;;13.87;10.57;;;;;;;;;;5058557;28;20467;-80
2021/12/31 05:24:55;;;;;;;11.40;10.20;;;;;;;;;;5061143;28;20477;-80
2021/12/31 05:27:22;;;;;;;16.33;10.27;;;;;;;;;;5060788;28;20463;-80
2021/12/31 05:29:50;;;;;;;21.23;10.90;;;;;;;;;;5059768;28;21101;-79
2021/12/31 05:32:16;;;;;;;13.13;11.03;;;;;;;;;;5058520;28;20857;-79
2021/12/31 05:34:42;;;;;;;18.77;11.53;;;;;;;;;;5060002;28;20444;-78
2021/12/31 05:37:08;;;;;;;15.50;10.87;;;;;;;;;;5060434;28;20468;-79
2021/12/31 05:39:35;;;;;;;12.10;9.63;;;;;;;;;;5061769;28;20443;-79
2021/12/31 05:42:01;;;;;;;11.00;9.00;;;;;;;;;;5060194;28;20899;-80
2021/12/31 05:44:27;;;;;;;11.17;8.93;;;;;;;;;;5060652;28;20449;-79
2021/12/31 05:46:56;;;;;;;14.20;9.27;;;;;;;;;;5060228;28;20464;-80
2021/12/31 05:49:23;;;;;;;18.23;12.03;;;;;;;;;;5059506;28;20465;-79
2021/12/31 05:51:50;;;;;;;18.83;13.83;;;;;;;;;;5058720;28;20477;-79
2021/12/31 05:54:16;;;;;;;15.10;11.83;;;;;;;;;;5060143;28;20494;-79
2021/12/31 05:56:42;;;;;;;15.37;12.17;;;;;;;;;;5059678;28;20475;-78
2021/12/31 05:59:08;;;;;;;14.20;12.50;;;;;;;;;;5061737;28;20448;-79
2021/12/31 06:01:35;;;;;;;11.03;9.97;;;;;;;;;;5061628;28;20528;-79
2021/12/31 06:04:02;;;;;;;13.17;10.80;;;;;;;;;;5061587;28;20466;-79
2021/12/31 06:06:29;;;;;;;11.77;8.20;;;;;;;;;;5061854;28;20459;-81
2021/12/31 06:08:55;;;;;;;8.00;7.30;;;;;;;;;;5063390;28;20889;-82
2021/12/31 06:11:21;;;;;;;8.73;7.90;;;;;;;;;;5063780;28;20524;-79
2021/12/31 06:13:54;;;;;;;12.10;7.70;;;;;;;;;;5060916;28;20479;-79
2021/12/31 06:16:20;;;;;;;8.07;7.30;;;;;;;;;;5059063;28;20463;-79
2021/12/31 06:18:46;;;;;;;9.63;8.00;;;;;;;;;;5058674;28;20444;-79
2021/12/31 06:21:14;;;;;;;11.73;7.60;;;;;;;;;;5060191;28;20475;-79
2021/12/31 06:23:40;;;;;;;10.73;8.80;;;;;;;;;;5061281;28;20435;-79
2021/12/31 06:26:07;;;;;;;13.67;9.00;;;;;;;;;;5060668;28;20470;-78
2021/12/31 06:28:33;;;;;;;11.20;9.17;;;;;;;;;;5060944;28;20444;-80
2021/12/31 06:30:59;;;;;;;9.47;8.57;;;;;;;;;;5059900;28;20481;-79
2021/12/31 06:33:25;;;;;;;12.40;11.10;;;;;;;;;;5061512;28;20473;-80
2021/12/31 06:35:52;;;;;;;11.83;10.23;;;;;;;;;;5065293;28;20451;-79
2021/12/31 06:38:19;;;;;;;12.30;10.53;;;;;;;;;;5060852;28;20469;-79
2021/12/31 06:40:45;;;;;;;13.10;11.70;;;;;;;;;;5062720;28;20547;-79
2021/12/31 06:43:12;;;;;;;22.80;20.30;;;;;;;;;;5063641;28;20440;-79
2021/12/31 06:45:38;;;;;;;23.10;18.43;;;;;;;;;;5064715;28;20446;-79
2021/12/31 06:48:05;;;;;;;26.77;20.83;;;;;;;;;;5064505;28;20469;-78
2021/12/31 06:50:31;;;;;;;25.27;15.80;;;;;;;;;;5062876;28;20880;-79
2021/12/31 06:52:57;;;;;;;22.30;17.00;;;;;;;;;;5063953;28;20468;-80
2021/12/31 06:55:25;;;;;;;15.90;14.30;;;;;;;;;;5064000;28;20502;-79
2021/12/31 06:57:52;;;;;;;18.53;14.10;;;;;;;;;;5063956;28;20446;-79
2021/12/31 07:00:19;;;;;;;20.97;10.90;;;;;;;;;;5064932;28;20481;-79
2021/12/31 07:02:45;;;;;;;10.27;9.00;;;;;;;;;;5065196;28;20450;-79
2021/12/31 07:05:11;;;;;;;18.10;14.63;;;;;;;;;;5064063;28;20455;-80
2021/12/31 07:07:38;;;;;;;14.40;11.17;;;;;;;;;;5062819;28;20449;-79
2021/12/31 07:10:04;;;;;;;19.30;14.73;;;;;;;;;;5062491;28;20445;-79
2021/12/31 07:12:32;;;;;;;19.20;11.50;;;;;;;;;;5063273;28;20475;-80
2021/12/31 07:14:59;;;;;;;12.70;11.37;;;;;;;;;;5063053;28;20455;-79
2021/12/31 07:17:28;;;;;;;13.00;7.60;;;;;;;;;;5061804;28;20475;-79
2021/12/31 07:19:54;;;;;;;18.23;13.57;;;;;;;;;;5063378;28;20446;-79
2021/12/31 07:22:21;;;;;;;17.57;13.93;;;;;;;;;;5063704;28;20448;-80
2021/12/31 07:24:47;;;;;;;14.00;9.43;;;;;;;;;;5062776;28;20422;-79
2021/12/31 07:27:14;;;;;;;11.20;8.97;;;;;;;;;;5062480;28;20430;-80
2021/12/31 07:29:41;;;;;;;12.17;9.40;;;;;;;;;;5062507;28;20451;-79
2021/12/31 07:32:07;;;;;;;8.10;7.30;;;;;;;;;;5063582;28;20480;-79
2021/12/31 07:34:34;;;;;;;10.30;8.07;;;;;;;;;;5063952;28;20456;-80
2021/12/31 07:37:00;;;;;;;10.70;7.57;;;;;;;;;;5062937;28;20447;-80
2021/12/31 07:39:31;;;;;;;9.83;6.87;;;;;;;;;;5062605;28;20439;-78
2021/12/31 07:41:57;;;;;;;7.87;5.23;;;;;;;;;;5063084;28;20592;-80
2021/12/31 07:44:23;;;;;;;9.93;6.20;;;;;;;;;;5063229;28;20815;-79
2021/12/31 07:46:51;;;;;;;10.43;6.30;;;;;;;;;;5063179;28;20793;-79
2021/12/31 07:49:17;;;;;;;8.47;5.37;;;;;;;;;;5064103;28;20420;-81
2021/12/31 07:51:44;;;;;;;9.73;6.53;;;;;;;;;;5065223;28;20472;-80
2021/12/31 07:54:10;;;;;;;7.27;6.00;;;;;;;;;;5065598;28;20417;-79
2021/12/31 07:56:36;;;;;;;8.60;5.37;;;;;;;;;;5061873;28;20486;-78
2021/12/31 07:59:02;;;;;;;9.83;8.27;;;;;;;;;;5062679;28;20491;-79
2021/12/31 08:01:29;;;;;;;10.40;6.67;;;;;;;;;;5064210;28;20475;-79
2021/12/31 08:03:56;;;;;;;12.73;8.90;;;;;;;;;;5062825;28;20451;-79
2021/12/31 08:06:22;;;;;;;14.57;11.43;;;;;;;;;;5062643;28;20437;-79
2021/12/31 08:08:49;;;;;;;11.03;8.33;;;;;;;;;;5063121;28;20500;-79
2021/12/31 08:11:15;;;;;;;8.43;5.17;;;;;;;;;;5064064;28;20446;-79
2021/12/31 08:13:41;;;;;;;6.90;4.43;;;;;;;;;;5062609;28;20451;-79
2021/12/31 08:16:07;;;;;;;5.47;4.80;;;;;;;;;;5062898;28;20459;-79
2021/12/31 08:18:34;;;;;;;6.50;5.70;;;;;;;;;;5061602;28;20476;-79
2021/12/31 08:21:01;;;;;;;5.73;4.70;;;;;;;;;;5060583;28;20464;-79
2021/12/31 08:23:27;;;;;;;4.93;4.40;;;;;;;;;;5061077;28;20450;-79
2021/12/31 08:25:54;;;;;;;4.97;3.73;;;;;;;;;;5060967;28;20456;-79
2021/12/31 08:28:20;;;;;;;6.80;4.77;;;;;;;;;;5060734;28;20448;-79
2021/12/31 08:30:47;;;;;;;7.40;4.27;;;;;;;;;;5062768;28;20559;-78
2021/12/31 08:33:13;;;;;;;6.30;4.67;;;;;;;;;;5061227;28;20467;-79
2021/12/31 08:35:39;;;;;;;6.20;4.40;;;;;;;;;;5062909;28;20455;-79
2021/12/31 08:38:07;;;;;;;6.20;5.60;;;;;;;;;;5061137;28;20526;-79
2021/12/31 08:40:33;;;;;;;5.40;4.23;;;;;;;;;;5061494;28;20470;-79
2021/12/31 08:43:00;;;;;;;5.60;4.20;;;;;;;;;;5061934;28;21028;-79
2021/12/31 08:45:29;;;;;;;6.17;5.07;;;;;;;;;;5063264;28;20877;-79
2021/12/31 08:47:56;;;;;;;7.10;5.07;;;;;;;;;;5062056;28;20498;-79
2021/12/31 08:50:22;;;;;;;9.10;5.40;;;;;;;;;;5061858;28;20494;-79
2021/12/31 08:52:48;;;;;;;6.57;5.30;;;;;;;;;;5061232;28;20449;-79
2021/12/31 08:55:17;;;;;;;11.70;6.40;;;;;;;;;;5062640;28;20514;-79
2021/12/31 08:57:43;;;;;;;4.80;4.40;;;;;;;;;;5061322;28;20499;-79
2021/12/31 09:00:10;;;;;;;8.00;7.10;;;;;;;;;;5061311;28;20471;-79
2021/12/31 09:02:38;;;;;;;11.80;8.00;;;;;;;;;;5061588;28;20518;-80
2021/12/31 09:05:05;;;;;;;10.23;7.03;;;;;;;;;;5062192;28;20530;-79
2021/12/31 09:07:31;;;;;;;12.40;6.83;;;;;;;;;;5061129;28;20471;-79
2021/12/31 09:09:57;;;;;;;7.20;5.90;;;;;;;;;;5061938;28;20442;-79
2021/12/31 09:12:25;;;;;;;14.57;12.40;;;;;;;;;;5062432;28;20466;-79
2021/12/31 09:14:51;;;;;;;13.20;10.20;;;;;;;;;;5062952;28;20417;-79
2021/12/31 09:17:17;;;;;;;11.60;7.73;;;;;;;;;;5062965;28;20504;-79
2021/12/31 09:19:44;;;;;;;11.23;10.23;;;;;;;;;;5062865;28;20418;-79
2021/12/31 09:22:10;;;;;;;21.60;17.10;;;;;;;;;;5061139;28;20810;-79
2021/12/31 09:24:36;;;;;;;14.17;11.30;;;;;;;;;;5062448;28;20864;-79
2021/12/31 09:27:03;;;;;;;18.20;16.50;;;;;;;;;;5061026;28;20468;-79
2021/12/31 09:29:30;;;;;;;19.90;17.90;;;;;;;;;;5060484;28;21077;-79
2021/12/31 09:31:56;;;;;;;21.97;19.97;;;;;;;;;;5060492;28;20446;-80
2021/12/31 09:34:23;;;;;;;14.43;12.40;;;;;;;;;;5062868;28;20451;-79
2021/12/31 09:36:49;;;;;;;19.20;13.57;;;;;;;;;;5062006;28;20522;-78
2021/12/31 09:39:15;;;;;;;19.60;17.17;;;;;;;;;;5061063;28;20491;-80
2021/12/31 09:41:42;;;;;;;14.33;10.80;;;;;;;;;;5059462;28;20702;-80
2021/12/31 09:44:08;;;;;;;14.60;13.00;;;;;;;;;;5059092;28;20448;-79
2021/12/31 09:46:35;;;;;;;19.07;16.30;;;;;;;;;;5060881;28;21028;-79
2021/12/31 09:49:02;;;;;;;21.53;19.40;;;;;;;;;;5060571;28;20447;-79
2021/12/31 09:51:29;;;;;;;33.03;25.30;;;;;;;;;;5061653;28;20525;-79
2021/12/31 09:53:58;;;;;;;24.50;20.23;;;;;;;;;;5060657;28;20454;-79
2021/12/31 09:56:24;;;;;;;29.00;26.10;;;;;;;;;;5061692;28;21040;-79
2021/12/31 09:58:51;;;;;;;32.87;29.50;;;;;;;;;;5059599;28;20461;-79
2021/12/31 10:01:17;;;;;;;25.30;21.70;;;;;;;;;;5061127;28;20474;-79
2021/12/31 10:03:54;;;;;;;20.30;17.33;;;;;;;;;;5061543;28;20435;-78
2021/12/31 10:06:20;;;;;;;19.40;14.67;;;;;;;;;;5061514;28;20517;-79
2021/12/31 10:08:47;;;;;;;14.97;9.93;;;;;;;;;;5062108;28;21003;-79
2021/12/31 10:11:16;;;;;;;13.07;9.37;;;;;;;;;;5065779;28;20813;-79
2021/12/31 10:13:43;;;;;;;9.40;7.30;;;;;;;;;;5065389;28;20465;-78
2021/12/31 10:16:19;;;;;;;12.80;9.97;;;;;;;;;;5064049;28;20444;-79
2021/12/31 10:18:47;;;;;;;10.20;9.20;;;;;;;;;;5065416;28;20487;-79
2021/12/31 10:21:15;;;;;;;18.37;16.47;;;;;;;;;;5064691;28;20472;-79
2021/12/31 10:23:41;;;;;;;25.70;22.80;;;;;;;;;;5064274;28;20542;-79
2021/12/31 10:26:09;;;;;;;34.70;31.40;;;;;;;;;;5063788;28;20449;-79
2021/12/31 10:28:35;;;;;;;37.90;33.90;;;;;;;;;;5065189;28;20448;-79
2021/12/31 10:31:12;;;;;;;26.60;20.00;;;;;;;;;;5063449;28;21123;-79
2021/12/31 10:33:42;;;;;;;13.50;12.13;;;;;;;;;;5064399;28;20438;-80
2021/12/31 10:36:09;;;;;;;8.40;6.37;;;;;;;;;;5062471;28;20478;-80
2021/12/31 10:38:36;;;;;;;10.40;9.17;;;;;;;;;;5063625;28;20487;-80
2021/12/31 10:41:04;;;;;;;13.00;6.20;;;;;;;;;;5062840;28;20910;-80
2021/12/31 10:43:30;;;;;;;10.87;6.77;;;;;;;;;;5065288;28;20451;-79
2021/12/31 10:46:01;;;;;;;7.87;6.00;;;;;;;;;;5063365;28;20991;-79
2021/12/31 10:48:41;;;;;;;10.10;6.40;;;;;;;;;;5064450;28;20451;-79
2021/12/31 10:51:07;;;;;;;8.03;5.77;;;;;;;;;;5063069;28;20470;-79
2021/12/31 10:53:37;;;;;;;6.80;6.13;;;;;;;;;;5065119;28;20789;-79
2021/12/31 10:56:07;;;;;;;7.37;5.80;;;;;;;;;;5064202;28;20447;-79
2021/12/31 10:58:34;;;;;;;5.93;5.27;;;;;;;;;;5064932;28;20526;-79
2021/12/31 11:01:02;;;;;;;7.03;6.17;;;;;;;;;;5064189;28;21091;-79
2021/12/31 11:03:28;;;;;;;6.63;6.00;;;;;;;;;;5064512;28;20870;-79
2021/12/31 11:05:57;;;;;;;6.60;5.43;;;;;;;;;;5063958;28;20448;-80
2021/12/31 11:08:23;;;;;;;8.27;5.80;;;;;;;;;;5061383;28;20446;-79
2021/12/31 11:10:51;;;;;;;6.40;5.50;;;;;;;;;;5063921;28;20446;-80
2021/12/31 11:13:18;;;;;;;9.47;5.40;;;;;;;;;;5063044;28;20484;-79
2021/12/31 11:15:46;;;;;;;5.00;4.50;;;;;;;;;;5064727;28;21015;-79
2021/12/31 11:18:13;;;;;;;7.83;5.80;;;;;;;;;;5063346;28;21134;-79
2021/12/31 11:20:40;;;;;;;5.03;4.57;;;;;;;;;;5063782;28;20464;-79
2021/12/31 11:23:06;;;;;;;8.20;5.47;;;;;;;;;;5063705;28;20541;-79
2021/12/31 11:25:32;;;;;;;6.83;5.20;;;;;;;;;;5065006;28;20444;-79
2021/12/31 11:28:00;;;;;;;9.40;6.47;;;;;;;;;;5062831;28;20480;-75
2021/12/31 11:30:28;;;;;;;6.80;5.27;;;;;;;;;;5061855;28;20462;-79
2021/12/31 11:32:58;;;;;;;7.57;5.70;;;;;;;;;;5061059;28;20467;-79
2021/12/31 11:35:29;;;;;;;7.57;6.80;;;;;;;;;;5061988;28;21015;-79
2021/12/31 11:37:55;;;;;;;10.07;8.30;;;;;;;;;;5061787;28;20462;-79
2021/12/31 11:40:26;;;;;;;10.10;7.10;;;;;;;;;;5063932;28;21024;-79
2021/12/31 11:43:11;;;;;;;17.90;15.20;;;;;;;;;;5061686;28;20475;-79
2021/12/31 11:45:38;;;;;;;14.33;9.30;;;;;;;;;;5064591;28;20513;-79
2021/12/31 11:48:28;;;;;;;16.67;14.00;;;;;;;;;;5062830;28;20468;-78
2021/12/31 11:51:02;;;;;;;15.30;13.70;;;;;;;;;;5061801;28;20449;-80
2021/12/31 11:53:28;;;;;;;20.57;18.30;;;;;;;;;;5063420;28;20474;-79
2021/12/31 11:55:55;;;;;;;9.50;8.50;;;;;;;;;;5062617;28;20452;-79
2021/12/31 11:58:37;;;;;;;11.20;10.10;;;;;;;;;;5063064;28;20455;-79
2021/12/31 12:01:18;;;;;;;7.80;6.00;;;;;;;;;;5062566;28;20570;-79
2021/12/31 12:03:46;;;;;;;16.57;11.80;;;;;;;;;;5063124;28;20952;-78
2021/12/31 12:06:35;;;;;;;9.13;5.60;;;;;;;;;;5061873;28;20439;-79
2021/12/31 12:09:03;;;;;;;13.73;12.03;;;;;;;;;;5063766;28;20455;-79
2021/12/31 12:11:47;;;;;;;7.47;6.67;;;;;;;;;;5060865;28;20474;-79
2021/12/31 12:14:29;;;;;;;8.33;7.57;;;;;;;;;;5064035;28;20566;-79
2021/12/31 12:16:55;;;;;;;8.83;6.97;;;;;;;;;;5061851;28;20476;-79
2021/12/31 12:19:22;;;;;;;7.43;5.83;;;;;;;;;;5063472;28;20540;-79
2021/12/31 12:21:52;;;;;;;8.33;6.30;;;;;;;;;;5062383;28;20475;-79
2021/12/31 12:24:24;;;;;;;8.13;6.10;;;;;;;;;;5062008;28;20493;-79
2021/12/31 12:26:50;;;;;;;8.80;6.07;;;;;;;;;;5062616;28;20449;-79
2021/12/31 12:29:24;;;;;;;10.23;6.73;;;;;;;;;;5061976;28;20451;-79
2021/12/31 12:32:05;;;;;;;12.33;7.33;;;;;;;;;;5062236;28;21073;-79
2021/12/31 12:34:31;;;;;;;9.43;8.20;;;;;;;;;;5062745;28;20447;-79
2021/12/31 12:36:58;;;;;;;9.53;6.30;;;;;;;;;;5063853;28;20861;-79
2021/12/31 12:39:25;;;;;;;12.80;6.87;;;;;;;;;;5064542;28;20997;-79
2021/12/31 12:41:51;;;;;;;20.40;12.40;;;;;;;;;;5061452;28;20437;-80
2021/12/31 12:44:18;;;;;;;19.07;13.27;;;;;;;;;;5063755;28;20439;-79
2021/12/31 12:46:52;;;;;;;13.03;10.63;;;;;;;;;;5062275;28;20471;-79
2021/12/31 12:49:18;;;;;;;10.87;7.90;;;;;;;;;;5062148;28;20480;-79
2021/12/31 12:51:46;;;;;;;8.87;7.27;;;;;;;;;;5062060;28;20480;-79
2021/12/31 12:54:19;;;;;;;10.87;8.20;;;;;;;;;;5062397;28;20534;-79
2021/12/31 12:56:47;;;;;;;12.27;7.50;;;;;;;;;;5061869;28;20467;-79
2021/12/31 12:59:17;;;;;;;9.47;7.87;;;;;;;;;;5062114;28;20546;-79
2021/12/31 13:01:45;;;;;;;13.13;7.80;;;;;;;;;;5063220;28;20505;-79
2021/12/31 13:04:12;;;;;;;9.60;7.70;;;;;;;;;;5064629;28;20477;-80
2021/12/31 13:06:39;;;;;;;10.63;9.30;;;;;;;;;;5061088;28;20543;-79
2021/12/31 13:09:06;;;;;;;8.77;7.87;;;;;;;;;;5062419;28;20871;-79
2021/12/31 13:11:33;;;;;;;13.83;8.90;;;;;;;;;;5061964;28;20582;-80
2021/12/31 13:14:01;;;;;;;15.53;12.10;;;;;;;;;;5064812;28;20460;-80
2021/12/31 13:16:27;;;;;;;14.13;12.63;;;;;;;;;;5063280;28;20490;-79
2021/12/31 13:18:55;;;;;;;9.97;7.83;;;;;;;;;;5063306;28;20998;-79
2021/12/31 13:21:22;;;;;;;11.63;8.57;;;;;;;;;;5063954;28;20475;-79
2021/12/31 13:23:51;;;;;;;10.80;7.70;;;;;;;;;;5062979;28;20439;-79
2021/12/31 13:26:18;;;;;;;9.03;7.83;;;;;;;;;;5061333;28;21148;-79
2021/12/31 13:28:44;;;;;;;10.43;8.50;;;;;;;;;;5062334;28;20446;-79
2021/12/31 13:31:12;;;;;;;10.03;6.90;;;;;;;;;;5061276;28;20479;-80
2021/12/31 13:33:39;;;;;;;9.87;7.03;;;;;;;;;;5062123;28;20444;-79
2021/12/31 13:36:13;;;;;;;10.83;8.40;;;;;;;;;;5063134;28;21528;-79
2021/12/31 13:38:57;;;;;;;14.57;8.47;;;;;;;;;;5062351;28;20488;-78
2021/12/31 13:41:24;;;;;;;11.33;9.57;;;;;;;;;;5062906;28;20537;-80
2021/12/31 13:43:52;;;;;;;15.00;8.77;;;;;;;;;;5061963;28;20492;-79
2021/12/31 13:46:20;;;;;;;16.20;13.37;;;;;;;;;;5062575;28;20477;-80
2021/12/31 13:48:46;;;;;;;13.80;8.80;;;;;;;;;;5063115;28;20470;-79
2021/12/31 13:51:26;;;;;;;10.03;8.13;;;;;;;;;;5062876;28;20992;-80
2021/12/31 13:53:52;;;;;;;12.60;9.97;;;;;;;;;;5062546;28;20700;-80
2021/12/31 13:56:19;;;;;;;14.30;12.50;;;;;;;;;;5063920;28;20467;-80
2021/12/31 13:58:45;;;;;;;16.20;11.00;;;;;;;;;;5062409;28;20481;-79
2021/12/31 14:01:12;;;;;;;12.60;9.23;;;;;;;;;;5061505;28;20486;-80
2021/12/31 14:03:40;;;;;;;11.77;9.23;;;;;;;;;;5061572;28;20444;-80
2021/12/31 14:06:15;;;;;;;14.13;9.53;;;;;;;;;;5060872;28;20443;-80
2021/12/31 14:08:43;;;;;;;12.57;9.80;;;;;;;;;;5059528;28;20946;-79
2021/12/31 14:11:10;;;;;;;18.10;11.60;;;;;;;;;;5061682;28;20470;-80
2021/12/31 14:13:38;;;;;;;12.87;10.10;;;;;;;;;;5060309;28;20455;-80
2021/12/31 14:16:05;;;;;;;12.50;10.20;;;;;;;;;;5061375;28;20511;-79
2021/12/31 14:18:32;;;;;;;11.67;9.20;;;;;;;;;;5060317;28;20466;-80
2021/12/31 14:20:59;;;;;;;14.50;10.27;;;;;;;;;;5060231;28;20498;-80
2021/12/31 14:23:25;;;;;;;16.10;9.57;;;;;;;;;;5060275;28;20446;-80
2021/12/31 14:25:53;;;;;;;13.40;10.97;;;;;;;;;;5061207;28;21197;-79
2021/12/31 14:28:19;;;;;;;19.13;12.07;;;;;;;;;;5060173;28;20467;-80
2021/12/31 14:30:45;;;;;;;16.27;11.27;;;;;;;;;;5061260;28;20487;-80
2021/12/31 14:33:12;;;;;;;13.30;10.40;;;;;;;;;;5060122;28;20473;-79
2021/12/31 14:35:41;;;;;;;17.30;10.80;;;;;;;;;;5062406;28;20451;-80